createdAt,value
2023-03-13T00:01:50.190Z,33.08
2023-03-13T00:04:16.801Z,37.90
2023-03-13T00:06:43.466Z,30.08
2023-03-13T00:09:12.088Z,30.08
2023-03-13T00:11:38.687Z,34.45
2023-03-13T00:14:06.782Z,28.95
2023-03-13T00:16:35.481Z,37.15
2023-03-13T00:19:02.206Z,36.00
2023-03-13T00:21:29.856Z,27.15
2023-03-13T00:23:57.740Z,31.45
2023-03-13T00:26:26.454Z,29.38
2023-03-13T00:28:53.736Z,27.92
2023-03-13T00:31:31.611Z,26.25
2023-03-13T00:34:01.547Z,26.60
2023-03-13T00:36:31.145Z,28.95
2023-03-13T00:38:58.899Z,36.17
2023-03-13T00:41:28.077Z,27.98
2023-03-13T00:43:55.086Z,30.58
2023-03-13T00:46:24.314Z,24.90
2023-03-13T00:48:52.416Z,31.92
2023-03-13T00:51:21.294Z,31.58
2023-03-13T00:53:48.358Z,34.75
2023-03-13T00:56:20.221Z,24.67
2023-03-13T00:58:48.624Z,31.33
2023-03-13T01:01:27.033Z,23.67
2023-03-13T01:04:00.189Z,22.73
2023-03-13T01:06:30.064Z,28.48
2023-03-13T01:08:59.025Z,27.98
2023-03-13T01:11:30.896Z,34.70
2023-03-13T01:14:00.268Z,32.00
2023-03-13T01:16:28.562Z,23.23
2023-03-13T01:18:58.805Z,24.23
2023-03-13T01:21:26.495Z,29.45
2023-03-13T01:23:54.311Z,25.92
2023-03-13T01:26:22.496Z,42.42
2023-03-13T01:28:49.672Z,30.40
2023-03-13T01:31:29.216Z,26.98
2023-03-13T01:33:58.613Z,31.70
2023-03-13T01:36:25.956Z,27.65
2023-03-13T01:38:55.059Z,29.73
2023-03-13T01:41:23.140Z,29.80
2023-03-13T01:43:50.493Z,25.67
2023-03-13T01:46:19.959Z,28.75
2023-03-13T01:49:22.920Z,27.00
2023-03-13T01:52:30.990Z,22.65
2023-03-13T01:55:14.641Z,33.80
2023-03-13T01:57:50.634Z,26.60
2023-03-13T02:00:26.699Z,28.30
2023-03-13T02:02:57.801Z,31.40
2023-03-13T02:05:28.127Z,31.30
2023-03-13T02:08:00.482Z,26.88
2023-03-13T02:10:29.663Z,18.70
2023-03-13T02:12:57.574Z,31.73
2023-03-13T02:15:27.000Z,36.15
2023-03-13T02:17:54.802Z,26.63
2023-03-13T02:20:24.402Z,27.10
2023-03-13T02:22:54.518Z,31.13
2023-03-13T02:25:23.980Z,32.58
2023-03-13T02:28:03.575Z,28.83
2023-03-13T02:30:34.008Z,34.90
2023-03-13T02:33:01.781Z,25.25
2023-03-13T02:35:31.671Z,37.38
2023-03-13T02:38:05.775Z,23.20
2023-03-13T02:40:42.736Z,31.92
2023-03-13T02:43:24.035Z,29.25
2023-03-13T02:46:21.172Z,25.77
2023-03-13T02:48:54.346Z,27.65
2023-03-13T02:51:38.028Z,28.00
2023-03-13T02:54:10.184Z,28.63
2023-03-13T02:56:39.272Z,28.15
2023-03-13T02:59:07.632Z,22.58
2023-03-13T03:01:36.557Z,20.92
2023-03-13T03:04:03.242Z,34.63
2023-03-13T03:06:31.104Z,23.20
2023-03-13T03:08:58.020Z,26.98
2023-03-13T03:11:26.768Z,24.58
2023-03-13T03:13:59.504Z,23.10
2023-03-13T03:16:28.044Z,27.60
2023-03-13T03:18:54.824Z,22.73
2023-03-13T03:21:23.655Z,34.20
2023-03-13T03:23:52.224Z,28.63
2023-03-13T03:26:19.916Z,18.15
2023-03-13T03:28:46.628Z,21.55
2023-03-13T03:31:15.713Z,22.90
2023-03-13T03:33:46.980Z,29.27
2023-03-13T03:36:19.907Z,23.75
2023-03-13T03:38:47.534Z,24.83
2023-03-13T03:41:19.066Z,24.48
2023-03-13T03:43:47.265Z,20.92
2023-03-13T03:46:16.452Z,23.52
2023-03-13T03:48:43.407Z,32.58
2023-03-13T03:51:11.684Z,26.63
2023-03-13T03:53:41.222Z,21.95
2023-03-13T03:56:09.424Z,33.90
2023-03-13T03:58:40.724Z,37.25
2023-03-13T04:01:21.821Z,27.70
2023-03-13T04:03:48.795Z,27.30
2023-03-13T04:06:15.602Z,25.33
2023-03-13T04:08:42.934Z,29.58
2023-03-13T04:11:12.287Z,29.08
2023-03-13T04:13:42.224Z,27.75
2023-03-13T04:16:10.240Z,25.92
2023-03-13T04:18:37.559Z,30.40
2023-03-13T04:21:06.197Z,32.17
2023-03-13T04:23:52.588Z,26.88
2023-03-13T04:26:19.921Z,23.98
2023-03-13T04:28:46.689Z,21.88
2023-03-13T04:31:18.364Z,23.70
2023-03-13T04:36:42.508Z,24.35
2023-03-13T04:39:28.010Z,22.27
2023-03-13T04:42:11.715Z,26.35
2023-03-13T04:44:57.233Z,25.35
2023-03-13T04:50:32.176Z,26.55
2023-03-13T04:55:52.316Z,32.83
2023-03-13T05:01:13.861Z,19.20
2023-03-13T05:04:03.520Z,12.65
2023-03-13T05:06:44.350Z,15.40
2023-03-13T05:09:21.605Z,14.23
2023-03-13T05:11:51.450Z,15.63
2023-03-13T05:14:30.889Z,13.18
2023-03-13T05:17:17.549Z,12.40
2023-03-13T05:20:13.712Z,16.55
2023-03-13T05:23:06.532Z,12.48
2023-03-13T05:25:53.504Z,4.13
2023-03-13T05:28:46.183Z,3.40
2023-03-13T05:31:33.274Z,3.67
2023-03-13T05:34:20.180Z,5.30
2023-03-13T05:37:07.076Z,2.25
2023-03-13T05:39:56.836Z,3.45
2023-03-13T05:42:32.968Z,2.58
2023-03-13T05:45:11.492Z,3.22
2023-03-13T05:47:50.410Z,5.60
2023-03-13T05:53:17.656Z,5.75
2023-03-13T05:56:04.328Z,5.40
2023-03-13T05:59:03.406Z,6.18
2023-03-13T06:01:32.814Z,1.95
2023-03-13T06:04:04.875Z,2.50
2023-03-13T06:06:34.539Z,2.97
2023-03-13T06:09:01.997Z,4.03
2023-03-13T06:11:31.120Z,4.18
2023-03-13T06:13:57.898Z,2.58
2023-03-13T06:16:39.326Z,3.80
2023-03-13T06:19:18.114Z,1.90
2023-03-13T06:21:45.018Z,5.80
2023-03-13T06:24:11.777Z,1.60
2023-03-13T06:26:38.390Z,4.93
2023-03-13T06:29:05.041Z,8.88
2023-03-13T06:31:32.530Z,4.53
2023-03-13T06:33:59.226Z,7.50
2023-03-13T06:36:26.015Z,3.10
2023-03-13T06:38:52.679Z,5.20
2023-03-13T06:41:19.679Z,2.58
2023-03-13T06:43:46.321Z,3.17
2023-03-13T06:46:19.176Z,5.53
2023-03-13T06:48:46.331Z,4.40
2023-03-13T06:51:14.766Z,2.97
2023-03-13T06:53:42.360Z,2.30
2023-03-13T06:56:09.552Z,5.38
2023-03-13T06:58:36.575Z,1.95
2023-03-13T07:01:09.321Z,2.53
2023-03-13T07:03:36.458Z,4.70
2023-03-13T07:06:03.816Z,2.65
2023-03-13T07:08:30.504Z,4.38
2023-03-13T07:11:05.801Z,4.88
2023-03-13T07:13:32.748Z,4.32
2023-03-13T07:16:04.525Z,3.83
2023-03-13T07:18:32.038Z,6.88
2023-03-13T07:21:00.543Z,3.83
2023-03-13T07:23:29.636Z,4.15
2023-03-13T07:25:58.963Z,6.32
2023-03-13T07:28:26.554Z,3.63
2023-03-13T07:30:53.851Z,4.28
2023-03-13T07:33:22.734Z,4.28
2023-03-13T07:35:51.111Z,4.63
2023-03-13T07:38:21.688Z,4.72
2023-03-13T07:40:53.401Z,4.72
2023-03-13T07:43:20.989Z,4.35
2023-03-13T07:45:59.208Z,5.43
2023-03-13T07:48:29.633Z,5.15
2023-03-13T07:50:56.476Z,6.80
2023-03-13T07:53:23.558Z,5.75
2023-03-13T07:56:00.152Z,5.60
2023-03-13T07:58:33.804Z,5.40
2023-03-13T08:01:00.767Z,5.60
2023-03-13T08:03:28.898Z,6.00
2023-03-13T08:06:10.743Z,6.85
2023-03-13T08:08:38.491Z,7.90
2023-03-13T08:11:07.760Z,7.80
2023-03-13T08:13:35.645Z,8.68
2023-03-13T08:16:17.253Z,9.27
2023-03-13T08:18:46.275Z,7.72
2023-03-13T08:21:18.478Z,8.57
2023-03-13T08:23:45.764Z,9.23
2023-03-13T08:26:15.761Z,9.10
2023-03-13T08:28:43.820Z,9.55
2023-03-13T08:31:22.312Z,9.60
2023-03-13T08:33:49.602Z,10.43
2023-03-13T08:36:27.440Z,11.02
2023-03-13T08:38:55.667Z,11.40
2023-03-13T08:41:28.823Z,12.70
2023-03-13T08:43:56.826Z,11.82
2023-03-13T08:46:24.280Z,13.20
2023-03-13T08:48:52.666Z,12.98
2023-03-13T08:51:21.119Z,12.18
2023-03-13T08:53:48.295Z,13.45
2023-03-13T08:56:17.513Z,12.38
2023-03-13T08:58:44.608Z,12.40
2023-03-13T09:01:14.091Z,13.32
2023-03-13T09:03:42.053Z,14.40
2023-03-13T09:06:10.236Z,13.73
2023-03-13T09:08:38.073Z,15.35
2023-03-13T09:11:10.462Z,17.38
2023-03-13T09:13:40.113Z,16.65
2023-03-13T09:16:10.104Z,21.08
2023-03-13T09:18:37.222Z,17.70
2023-03-13T09:21:10.376Z,18.83
2023-03-13T09:23:37.004Z,18.83
2023-03-13T09:26:04.452Z,19.65
2023-03-13T09:28:31.312Z,18.38
2023-03-13T09:31:14.867Z,17.85
2023-03-13T09:33:43.085Z,18.38
2023-03-13T09:36:10.356Z,19.40
2023-03-13T09:38:37.688Z,18.38
2023-03-13T09:41:34.785Z,17.00
2023-03-13T09:44:11.168Z,18.30
2023-03-13T09:46:53.278Z,18.55
2023-03-13T09:49:37.631Z,19.20
2023-03-13T09:52:24.693Z,18.63
2023-03-13T09:55:04.653Z,20.25
2023-03-13T09:57:44.810Z,20.40
2023-03-13T10:00:38.107Z,21.52
2023-03-13T10:03:10.773Z,19.02
2023-03-13T10:05:43.957Z,20.10
2023-03-13T10:08:25.666Z,20.48
2023-03-13T10:11:01.039Z,18.60
2023-03-13T10:13:54.305Z,18.05
2023-03-13T10:16:30.934Z,18.60
2023-03-13T10:18:59.757Z,17.35
2023-03-13T10:21:34.002Z,15.57
2023-03-13T10:24:48.586Z,14.40
2023-03-13T10:27:16.024Z,11.02
2023-03-13T10:29:42.740Z,13.00
2023-03-13T10:32:15.836Z,13.40
2023-03-13T10:35:00.404Z,13.40
2023-03-13T10:37:30.199Z,12.48
2023-03-13T10:40:26.819Z,14.23
2023-03-13T10:43:00.900Z,15.07
2023-03-13T10:45:30.816Z,17.33
2023-03-13T10:48:01.298Z,17.40
2023-03-13T10:50:32.230Z,17.83
2023-03-13T10:53:30.930Z,18.38
2023-03-13T10:56:10.325Z,20.08
2023-03-13T10:58:41.505Z,19.50
2023-03-13T11:01:28.698Z,18.88
2023-03-13T11:03:57.631Z,19.55
2023-03-13T11:06:31.416Z,20.00
2023-03-13T11:09:10.188Z,22.65
2023-03-13T11:11:48.693Z,21.35
2023-03-13T11:14:34.820Z,22.83
2023-03-13T11:17:23.823Z,19.98
2023-03-13T11:20:05.682Z,18.65
2023-03-13T11:22:47.532Z,20.10
2023-03-13T11:25:21.984Z,20.35
2023-03-13T11:28:04.200Z,20.65
2023-03-13T11:31:02.713Z,21.52
2023-03-13T11:33:58.817Z,21.60
2023-03-13T11:36:43.108Z,19.98
2023-03-13T11:39:21.744Z,22.13
2023-03-13T11:42:02.207Z,24.33
2023-03-13T11:44:28.855Z,26.45
2023-03-13T11:47:23.358Z,24.25
2023-03-13T11:50:26.070Z,25.30
2023-03-13T11:53:13.654Z,28.25
2023-03-13T11:55:49.307Z,26.75
2023-03-13T11:58:41.636Z,26.02
2023-03-13T12:01:19.973Z,27.25
2023-03-13T12:04:02.013Z,25.98
2023-03-13T12:06:32.556Z,26.20
2023-03-13T12:09:22.971Z,28.98
2023-03-13T12:12:03.379Z,26.08
2023-03-13T12:15:07.789Z,27.90
2023-03-13T12:17:40.240Z,28.52
2023-03-13T12:20:44.741Z,33.80
2023-03-13T12:23:15.826Z,26.80
2023-03-13T12:26:04.439Z,27.88
2023-03-13T12:29:07.967Z,25.90
2023-03-13T12:31:57.877Z,26.65
2023-03-13T12:34:34.449Z,26.48
2023-03-13T12:37:21.536Z,27.15
2023-03-13T12:40:08.612Z,27.30
2023-03-13T12:42:53.699Z,25.30
2023-03-13T12:45:24.236Z,27.08
2023-03-13T12:48:20.175Z,25.17
2023-03-13T12:51:04.494Z,26.83
2023-03-13T12:53:55.616Z,29.88
2023-03-13T12:56:38.404Z,28.73
2023-03-13T12:59:16.021Z,27.85
2023-03-13T13:01:48.133Z,32.40
2023-03-13T13:04:33.600Z,31.83
2023-03-13T13:07:04.251Z,30.98
2023-03-13T13:09:40.267Z,28.98
2023-03-13T13:12:16.363Z,28.65
2023-03-13T13:14:49.139Z,27.80
2023-03-13T13:17:31.558Z,28.67
2023-03-13T13:19:58.298Z,28.23
2023-03-13T13:22:36.477Z,28.83
2023-03-13T13:25:27.501Z,27.38
2023-03-13T13:27:54.355Z,25.52
2023-03-13T13:30:21.024Z,25.77
2023-03-13T13:32:54.865Z,26.08
2023-03-13T13:35:28.789Z,26.05
2023-03-13T13:38:28.954Z,26.35
2023-03-13T13:40:58.576Z,27.38
2023-03-13T13:43:25.660Z,24.85
2023-03-13T13:46:07.126Z,23.95
2023-03-13T13:48:39.798Z,22.73
2023-03-13T13:51:13.938Z,25.17
2023-03-13T13:53:44.965Z,25.77
2023-03-13T13:56:36.763Z,25.02
2023-03-13T13:59:21.942Z,23.85
2023-03-13T14:02:13.862Z,24.50
2023-03-13T14:04:53.045Z,43.35
2023-03-13T14:07:26.743Z,25.85
2023-03-13T14:10:21.034Z,23.58
2023-03-13T14:12:55.762Z,26.55
2023-03-13T14:15:28.632Z,26.17
2023-03-13T14:18:13.177Z,23.48
2023-03-13T14:20:58.956Z,26.60
2023-03-13T14:23:35.294Z,25.35
2023-03-13T14:26:27.595Z,25.77
2023-03-13T14:28:58.349Z,25.38
2023-03-13T14:31:27.822Z,26.33
2023-03-13T14:33:56.596Z,30.58
2023-03-13T14:36:23.581Z,27.27
2023-03-13T14:39:00.965Z,28.70
2023-03-13T14:41:36.222Z,29.70
2023-03-13T14:44:05.776Z,28.17
2023-03-13T14:46:39.894Z,28.27
2023-03-13T14:49:21.165Z,27.30
2023-03-13T14:52:02.695Z,30.95
2023-03-13T14:54:37.643Z,29.35
2023-03-13T14:59:48.341Z,24.90
2023-03-13T15:02:24.339Z,25.90
2023-03-13T15:04:55.896Z,32.63
2023-03-13T15:07:23.536Z,30.08
2023-03-13T15:09:51.512Z,26.05
2023-03-13T15:12:22.053Z,23.65
2023-03-13T15:14:50.875Z,23.40
2023-03-13T15:17:22.237Z,23.58
2023-03-13T15:19:57.567Z,24.05
2023-03-13T15:22:53.661Z,25.70
2023-03-13T15:25:23.872Z,26.98
2023-03-13T15:27:50.803Z,26.75
2023-03-13T15:30:20.100Z,29.58
2023-03-13T15:32:47.147Z,27.83
2023-03-13T15:35:33.255Z,26.90
2023-03-13T15:38:01.634Z,21.23
2023-03-13T15:40:30.793Z,20.63
2023-03-13T15:42:58.167Z,18.58
2023-03-13T15:45:25.013Z,18.48
2023-03-13T15:47:52.242Z,14.45
2023-03-13T15:50:20.515Z,15.10
2023-03-13T15:52:47.214Z,13.55
2023-03-13T15:55:14.331Z,15.93
2023-03-13T15:57:50.365Z,14.50
2023-03-13T16:00:25.549Z,15.23
2023-03-13T16:02:52.645Z,14.70
2023-03-13T16:05:19.439Z,16.73
2023-03-13T16:07:46.184Z,17.95
2023-03-13T16:10:25.223Z,18.42
2023-03-13T16:12:53.030Z,18.75
2023-03-13T16:15:19.925Z,22.55
2023-03-13T16:17:46.581Z,20.75
2023-03-13T16:20:21.507Z,20.92
2023-03-13T16:25:15.363Z,22.52
2023-03-13T16:27:42.169Z,32.00
2023-03-13T16:30:19.253Z,20.70
2023-03-13T16:32:46.238Z,20.77
2023-03-13T16:35:13.394Z,20.63
2023-03-13T16:37:40.414Z,20.60
2023-03-13T16:40:22.743Z,21.05
2023-03-13T16:42:49.552Z,22.50
2023-03-13T16:45:16.484Z,22.95
2023-03-13T16:47:44.448Z,24.65
2023-03-13T16:50:31.912Z,24.42
2023-03-13T16:52:58.987Z,22.67
2023-03-13T16:55:28.494Z,23.90
2023-03-13T16:57:59.197Z,24.90
2023-03-13T17:00:29.430Z,23.08
2023-03-13T17:02:57.910Z,24.48
2023-03-13T17:05:26.790Z,27.30
2023-03-13T17:07:54.084Z,26.15
2023-03-13T17:10:24.160Z,26.48
2023-03-13T17:12:53.350Z,25.40
2023-03-13T17:15:20.834Z,26.80
2023-03-13T17:17:51.548Z,24.58
2023-03-13T17:20:21.094Z,17.48
2023-03-13T17:22:47.831Z,25.70
2023-03-13T17:25:14.596Z,17.50
2023-03-13T17:27:42.881Z,18.58
2023-03-13T17:30:18.510Z,18.13
2023-03-13T17:32:45.238Z,18.98
2023-03-13T17:35:11.909Z,17.80
2023-03-13T17:37:38.810Z,16.90
2023-03-13T17:40:21.060Z,23.38
2023-03-13T17:42:48.413Z,16.25
2023-03-13T17:45:16.006Z,16.33
2023-03-13T17:47:42.837Z,16.77
2023-03-13T17:50:21.914Z,20.17
2023-03-13T17:52:49.083Z,17.83
2023-03-13T17:55:15.844Z,17.33
2023-03-13T17:57:43.797Z,15.75
2023-03-13T18:00:24.977Z,15.23
2023-03-13T18:02:51.965Z,17.35
2023-03-13T18:05:18.864Z,14.80
2023-03-13T18:07:45.635Z,15.13
2023-03-13T18:10:27.677Z,13.60
2023-03-13T18:12:54.928Z,15.80
2023-03-13T18:15:23.642Z,15.85
2023-03-13T18:17:50.700Z,14.80
2023-03-13T18:20:24.952Z,14.90
2023-03-13T18:22:51.830Z,13.82
2023-03-13T18:25:19.304Z,14.02
2023-03-13T18:27:45.953Z,14.48
2023-03-13T18:30:18.545Z,13.75
2023-03-13T18:32:46.329Z,14.45
2023-03-13T18:35:13.703Z,15.13
2023-03-13T18:37:42.607Z,14.25
2023-03-13T18:40:30.964Z,13.35
2023-03-13T18:42:57.719Z,13.25
2023-03-13T18:45:28.097Z,12.98
2023-03-13T18:47:55.152Z,13.57
2023-03-13T18:50:28.501Z,12.27
2023-03-13T18:52:57.566Z,11.45
2023-03-13T18:55:26.525Z,13.23
2023-03-13T18:57:53.283Z,11.38
2023-03-13T19:00:25.596Z,11.88
2023-03-13T19:02:52.686Z,11.20
2023-03-13T19:05:19.937Z,11.93
2023-03-13T19:07:47.064Z,12.65
2023-03-13T19:10:28.952Z,11.80
2023-03-13T19:12:56.588Z,11.73
2023-03-13T19:15:27.618Z,11.20
2023-03-13T19:17:55.973Z,11.02
2023-03-13T19:20:23.263Z,12.25
2023-03-13T19:22:49.928Z,12.43
2023-03-13T19:25:17.134Z,12.68
2023-03-13T19:27:44.535Z,13.52
2023-03-13T19:30:18.707Z,15.25
2023-03-13T19:32:45.534Z,15.30
2023-03-13T19:35:12.707Z,16.38
2023-03-13T19:37:40.218Z,16.48
2023-03-13T19:40:15.398Z,16.92
2023-03-13T19:42:41.977Z,18.05
2023-03-13T19:45:09.117Z,16.98
2023-03-13T19:47:35.744Z,15.40
2023-03-13T19:50:02.396Z,17.27
2023-03-13T19:52:29.524Z,16.60
2023-03-13T19:54:57.267Z,16.55
2023-03-13T19:57:24.093Z,16.80
2023-03-13T19:59:50.684Z,15.43
2023-03-13T20:02:17.504Z,16.33
2023-03-13T20:04:45.706Z,17.88
2023-03-13T20:07:12.480Z,17.65
2023-03-13T20:09:39.133Z,17.38
2023-03-13T20:12:05.947Z,18.05
2023-03-13T20:14:32.654Z,18.30
2023-03-13T20:16:59.789Z,17.52
2023-03-13T20:19:29.164Z,17.20
2023-03-13T20:21:59.975Z,16.50
2023-03-13T20:24:26.570Z,17.15
2023-03-13T20:26:55.513Z,16.67
2023-03-13T20:29:22.179Z,17.15
2023-03-13T20:31:50.504Z,16.88
2023-03-13T20:34:18.238Z,16.67
2023-03-13T20:36:44.806Z,17.10
2023-03-13T20:39:11.447Z,17.95
2023-03-13T20:41:38.064Z,16.52
2023-03-13T20:44:04.849Z,16.58
2023-03-13T20:46:31.498Z,16.83
2023-03-13T20:48:59.103Z,16.55
2023-03-13T20:51:26.062Z,17.30
2023-03-13T20:53:52.662Z,16.30
2023-03-13T20:56:19.333Z,17.40
2023-03-13T20:58:45.965Z,16.98
2023-03-13T21:01:12.586Z,17.63
2023-03-13T21:03:39.336Z,18.30
2023-03-13T21:06:14.873Z,18.25
2023-03-13T21:08:42.160Z,19.33
2023-03-13T21:11:13.057Z,18.35
2023-03-13T21:13:39.707Z,17.75
2023-03-13T21:16:06.817Z,17.90
2023-03-13T21:18:33.556Z,17.83
2023-03-13T21:21:08.864Z,19.48
2023-03-13T21:23:37.577Z,18.27
2023-03-13T21:26:04.333Z,18.55
2023-03-13T21:28:31.198Z,18.67
2023-03-13T21:30:57.847Z,19.27
2023-03-13T21:33:25.492Z,18.77
2023-03-13T21:35:52.300Z,18.83
2023-03-13T21:38:19.011Z,17.95
2023-03-13T21:40:45.678Z,18.85
2023-03-13T21:43:12.269Z,17.88
2023-03-13T21:45:38.934Z,18.60
2023-03-13T21:48:05.627Z,18.95
2023-03-13T21:50:32.614Z,17.63
2023-03-13T21:52:59.402Z,18.13
2023-03-13T21:55:26.023Z,17.92
2023-03-13T21:57:52.661Z,18.42
2023-03-13T22:00:19.516Z,18.23
2023-03-13T22:02:46.228Z,17.75
2023-03-13T22:05:12.861Z,18.40
2023-03-13T22:07:39.668Z,19.13
2023-03-13T22:10:06.975Z,18.20
2023-03-13T22:12:33.774Z,18.55
2023-03-13T22:15:00.780Z,17.83
2023-03-13T22:17:27.347Z,17.33
2023-03-13T22:19:53.984Z,16.80
2023-03-13T22:22:21.849Z,16.73
2023-03-13T22:24:48.716Z,17.30
2023-03-13T22:27:15.481Z,17.65
2023-03-13T22:29:42.063Z,15.68
2023-03-13T22:32:09.507Z,16.10
2023-03-13T22:34:36.291Z,15.95
2023-03-13T22:37:03.292Z,15.00
2023-03-13T22:39:32.265Z,15.82
2023-03-13T22:41:58.894Z,16.35
2023-03-13T22:44:25.494Z,16.23
2023-03-13T22:46:52.105Z,15.95
2023-03-13T22:49:18.732Z,16.38
2023-03-13T22:51:45.355Z,16.42
2023-03-13T22:54:13.257Z,16.30
2023-03-13T22:56:39.848Z,15.98
2023-03-13T22:59:06.502Z,16.02
2023-03-13T23:01:33.184Z,16.02
2023-03-13T23:04:00.221Z,15.43
2023-03-13T23:06:27.132Z,15.13
2023-03-13T23:08:53.807Z,15.60
2023-03-13T23:11:20.899Z,15.50
2023-03-13T23:13:48.233Z,15.20
2023-03-13T23:16:15.094Z,15.30
2023-03-13T23:18:42.147Z,14.73
2023-03-13T23:21:11.773Z,14.30
2023-03-13T23:23:38.930Z,14.77
2023-03-13T23:26:08.880Z,15.70
2023-03-13T23:28:37.062Z,15.95
2023-03-13T23:31:18.716Z,14.95
2023-03-13T23:33:46.041Z,15.68
2023-03-13T23:36:16.165Z,15.50
2023-03-13T23:38:43.102Z,15.90
2023-03-13T23:41:14.075Z,15.70
2023-03-13T23:43:40.917Z,16.23
2023-03-13T23:46:18.863Z,16.25
2023-03-13T23:48:45.505Z,15.68
2023-03-13T23:51:12.286Z,16.98
2023-03-13T23:53:41.888Z,15.82
2023-03-13T23:56:09.072Z,15.32
2023-03-13T23:58:35.755Z,15.63
